sensor_id;sensor_type;location;lat;lon;timestamp;P1;P2;P0
70436;PMS5003;57877;39.750;-104.894;2023-09-18T00:00:12;0;0;
70436;PMS5003;57877;39.750;-104.894;2023-09-18T00:02:38;0;0;
70436;PMS5003;57877;39.750;-104.894;2023-09-18T00:05:02;0;0;
70436;PMS5003;57877;39.750;-104.894;2023-09-18T00:07:27;0;0;
70436;PMS5003;57877;39.750;-104.894;2023-09-18T00:09:52;0;0;
70436;PMS5003;57877;39.750;-104.894;2023-09-18T00:12:17;0;0;
70436;PMS5003;57877;39.750;-104.894;2023-09-18T00:14:42;0;0;
70436;PMS5003;57877;39.750;-104.894;2023-09-18T00:17:08;0;0;
70436;PMS5003;57877;39.750;-104.894;2023-09-18T00:19:33;0;0;
70436;PMS5003;57877;39.750;-104.894;2023-09-18T00:21:58;0;0;
70436;PMS5003;57877;39.750;-104.894;2023-09-18T00:24:23;0;0;
70436;PMS5003;57877;39.750;-104.894;2023-09-18T00:26:48;0;0;
70436;PMS5003;57877;39.750;-104.894;2023-09-18T00:29:13;0;0;
70436;PMS5003;57877;39.750;-104.894;2023-09-18T00:31:38;0;0;
70436;PMS5003;57877;39.750;-104.894;2023-09-18T00:34:03;0;0;
70436;PMS5003;57877;39.750;-104.894;2023-09-18T00:36:28;0;0;
70436;PMS5003;57877;39.750;-104.894;2023-09-18T00:38:53;0;0;
70436;PMS5003;57877;39.750;-104.894;2023-09-18T00:41:18;0;0;
70436;PMS5003;57877;39.750;-104.894;2023-09-18T00:43:43;0;0;
70436;PMS5003;57877;39.750;-104.894;2023-09-18T00:46:08;0;0;
70436;PMS5003;57877;39.750;-104.894;2023-09-18T00:48:34;0;0;
70436;PMS5003;57877;39.750;-104.894;2023-09-18T00:50:59;0;0;
70436;PMS5003;57877;39.750;-104.894;2023-09-18T00:53:24;0;0;
70436;PMS5003;57877;39.750;-104.894;2023-09-18T00:55:49;0;0;
70436;PMS5003;57877;39.750;-104.894;2023-09-18T00:58:14;0;0;
70436;PMS5003;57877;39.750;-104.894;2023-09-18T01:00:39;0;0;
70436;PMS5003;57877;39.750;-104.894;2023-09-18T01:03:04;0;0;
70436;PMS5003;57877;39.750;-104.894;2023-09-18T01:05:30;0;0;
70436;PMS5003;57877;39.750;-104.894;2023-09-18T01:07:54;0;0;
70436;PMS5003;57877;39.750;-104.894;2023-09-18T01:10:20;0;0;
70436;PMS5003;57877;39.750;-104.894;2023-09-18T01:12:45;0;0;
70436;PMS5003;57877;39.750;-104.894;2023-09-18T01:15:11;0;0;
70436;PMS5003;57877;39.750;-104.894;2023-09-18T01:17:35;0;0;
70436;PMS5003;57877;39.750;-104.894;2023-09-18T01:19:59;0;0;
70436;PMS5003;57877;39.750;-104.894;2023-09-18T01:24:50;0;0;
70436;PMS5003;57877;39.750;-104.894;2023-09-18T01:27:15;0;0;
70436;PMS5003;57877;39.750;-104.894;2023-09-18T01:29:40;1;1;
70436;PMS5003;57877;39.750;-104.894;2023-09-18T01:32:05;0;0;
70436;PMS5003;57877;39.750;-104.894;2023-09-18T01:34:31;1;1;
70436;PMS5003;57877;39.750;-104.894;2023-09-18T01:36:55;1;0;
70436;PMS5003;57877;39.750;-104.894;2023-09-18T01:39:20;0;0;
70436;PMS5003;57877;39.750;-104.894;2023-09-18T01:41:45;0;0;
70436;PMS5003;57877;39.750;-104.894;2023-09-18T01:44:10;0;0;
70436;PMS5003;57877;39.750;-104.894;2023-09-18T01:46:35;0;0;
70436;PMS5003;57877;39.750;-104.894;2023-09-18T01:49:00;0;0;
70436;PMS5003;57877;39.750;-104.894;2023-09-18T01:51:25;1;0;
70436;PMS5003;57877;39.750;-104.894;2023-09-18T01:53:51;4;3;
70436;PMS5003;57877;39.750;-104.894;2023-09-18T01:56:15;5;5;
70436;PMS5003;57877;39.750;-104.894;2023-09-18T01:58:40;6;6;
70436;PMS5003;57877;39.750;-104.894;2023-09-18T02:01:05;5;4;
70436;PMS5003;57877;39.750;-104.894;2023-09-18T02:03:30;7;6;
70436;PMS5003;57877;39.750;-104.894;2023-09-18T02:05:55;4;3;
70436;PMS5003;57877;39.750;-104.894;2023-09-18T02:08:20;4;4;
70436;PMS5003;57877;39.750;-104.894;2023-09-18T02:10:45;6;6;
70436;PMS5003;57877;39.750;-104.894;2023-09-18T02:13:10;2;2;
70436;PMS5003;57877;39.750;-104.894;2023-09-18T02:15:36;3;2;
70436;PMS5003;57877;39.750;-104.894;2023-09-18T02:18:00;1;1;
70436;PMS5003;57877;39.750;-104.894;2023-09-18T02:20:25;4;4;
70436;PMS5003;57877;39.750;-104.894;2023-09-18T02:22:51;1;1;
70436;PMS5003;57877;39.750;-104.894;2023-09-18T02:25:17;2;2;
70436;PMS5003;57877;39.750;-104.894;2023-09-18T02:27:41;0;0;
70436;PMS5003;57877;39.750;-104.894;2023-09-18T02:30:07;1;1;
70436;PMS5003;57877;39.750;-104.894;2023-09-18T02:32:33;1;0;
70436;PMS5003;57877;39.750;-104.894;2023-09-18T02:34:59;1;1;
70436;PMS5003;57877;39.750;-104.894;2023-09-18T02:37:24;0;0;
70436;PMS5003;57877;39.750;-104.894;2023-09-18T02:39:49;0;0;
70436;PMS5003;57877;39.750;-104.894;2023-09-18T02:42:13;1;0;
70436;PMS5003;57877;39.750;-104.894;2023-09-18T02:44:39;1;1;
70436;PMS5003;57877;39.750;-104.894;2023-09-18T02:47:04;0;0;
70436;PMS5003;57877;39.750;-104.894;2023-09-18T02:49:29;1;1;
70436;PMS5003;57877;39.750;-104.894;2023-09-18T02:51:54;0;0;
70436;PMS5003;57877;39.750;-104.894;2023-09-18T02:54:19;0;0;
70436;PMS5003;57877;39.750;-104.894;2023-09-18T02:56:44;0;0;
70436;PMS5003;57877;39.750;-104.894;2023-09-18T02:59:10;0;0;
70436;PMS5003;57877;39.750;-104.894;2023-09-18T03:01:35;1;0;
70436;PMS5003;57877;39.750;-104.894;2023-09-18T03:04:00;0;0;
70436;PMS5003;57877;39.750;-104.894;2023-09-18T03:06:26;0;0;
70436;PMS5003;57877;39.750;-104.894;2023-09-18T03:08:51;0;0;
70436;PMS5003;57877;39.750;-104.894;2023-09-18T03:11:16;0;0;
70436;PMS5003;57877;39.750;-104.894;2023-09-18T03:13:43;0;0;
70436;PMS5003;57877;39.750;-104.894;2023-09-18T03:16:06;0;0;
70436;PMS5003;57877;39.750;-104.894;2023-09-18T03:18:32;0;0;
70436;PMS5003;57877;39.750;-104.894;2023-09-18T03:20:58;0;0;
70436;PMS5003;57877;39.750;-104.894;2023-09-18T03:23:23;0;0;
70436;PMS5003;57877;39.750;-104.894;2023-09-18T03:25:48;0;0;
70436;PMS5003;57877;39.750;-104.894;2023-09-18T03:28:14;0;0;
70436;PMS5003;57877;39.750;-104.894;2023-09-18T03:30:40;1;1;
70436;PMS5003;57877;39.750;-104.894;2023-09-18T03:33:06;0;0;
70436;PMS5003;57877;39.750;-104.894;2023-09-18T03:35:31;2;1;
70436;PMS5003;57877;39.750;-104.894;2023-09-18T03:37:56;0;0;
70436;PMS5003;57877;39.750;-104.894;2023-09-18T03:40:21;0;0;
70436;PMS5003;57877;39.750;-104.894;2023-09-18T03:42:46;0;0;
70436;PMS5003;57877;39.750;-104.894;2023-09-18T03:45:12;2;1;
70436;PMS5003;57877;39.750;-104.894;2023-09-18T03:47:37;1;0;
70436;PMS5003;57877;39.750;-104.894;2023-09-18T03:50:02;0;0;
70436;PMS5003;57877;39.750;-104.894;2023-09-18T03:52:28;0;0;
70436;PMS5003;57877;39.750;-104.894;2023-09-18T03:54:54;0;0;
70436;PMS5003;57877;39.750;-104.894;2023-09-18T03:57:20;0;0;
70436;PMS5003;57877;39.750;-104.894;2023-09-18T03:59:46;0;0;
70436;PMS5003;57877;39.750;-104.894;2023-09-18T04:02:12;0;0;
70436;PMS5003;57877;39.750;-104.894;2023-09-18T04:04:37;0;0;
70436;PMS5003;57877;39.750;-104.894;2023-09-18T04:07:05;0;0;
70436;PMS5003;57877;39.750;-104.894;2023-09-18T04:09:29;0;0;
70436;PMS5003;57877;39.750;-104.894;2023-09-18T04:11:55;0;0;
70436;PMS5003;57877;39.750;-104.894;2023-09-18T04:14:20;0;0;
70436;PMS5003;57877;39.750;-104.894;2023-09-18T04:16:46;0;0;
70436;PMS5003;57877;39.750;-104.894;2023-09-18T04:19:12;0;0;
70436;PMS5003;57877;39.750;-104.894;2023-09-18T04:21:37;0;0;
70436;PMS5003;57877;39.750;-104.894;2023-09-18T04:24:03;0;0;
70436;PMS5003;57877;39.750;-104.894;2023-09-18T04:26:28;0;0;
70436;PMS5003;57877;39.750;-104.894;2023-09-18T04:28:53;0;0;
70436;PMS5003;57877;39.750;-104.894;2023-09-18T04:31:18;1;0;
70436;PMS5003;57877;39.750;-104.894;2023-09-18T04:33:45;1;0;
70436;PMS5003;57877;39.750;-104.894;2023-09-18T04:36:10;1;1;
70436;PMS5003;57877;39.750;-104.894;2023-09-18T04:38:35;1;1;
70436;PMS5003;57877;39.750;-104.894;2023-09-18T04:41:00;0;0;
70436;PMS5003;57877;39.750;-104.894;2023-09-18T04:43:25;0;0;
70436;PMS5003;57877;39.750;-104.894;2023-09-18T04:45:50;2;1;
70436;PMS5003;57877;39.750;-104.894;2023-09-18T04:48:16;0;0;
70436;PMS5003;57877;39.750;-104.894;2023-09-18T04:50:41;1;1;
70436;PMS5003;57877;39.750;-104.894;2023-09-18T04:53:06;0;0;
70436;PMS5003;57877;39.750;-104.894;2023-09-18T04:55:31;0;0;
70436;PMS5003;57877;39.750;-104.894;2023-09-18T04:57:56;0;0;
70436;PMS5003;57877;39.750;-104.894;2023-09-18T05:00:21;0;0;
70436;PMS5003;57877;39.750;-104.894;2023-09-18T05:02:46;0;0;
70436;PMS5003;57877;39.750;-104.894;2023-09-18T05:05:11;0;0;
70436;PMS5003;57877;39.750;-104.894;2023-09-18T05:07:36;0;0;
70436;PMS5003;57877;39.750;-104.894;2023-09-18T05:10:01;0;0;
70436;PMS5003;57877;39.750;-104.894;2023-09-18T05:12:26;0;0;
70436;PMS5003;57877;39.750;-104.894;2023-09-18T05:14:51;0;0;
70436;PMS5003;57877;39.750;-104.894;2023-09-18T05:17:16;0;0;
70436;PMS5003;57877;39.750;-104.894;2023-09-18T05:19:41;0;0;
70436;PMS5003;57877;39.750;-104.894;2023-09-18T05:22:07;0;0;
70436;PMS5003;57877;39.750;-104.894;2023-09-18T05:24:31;0;0;
70436;PMS5003;57877;39.750;-104.894;2023-09-18T05:26:56;0;0;
70436;PMS5003;57877;39.750;-104.894;2023-09-18T05:29:21;0;0;
70436;PMS5003;57877;39.750;-104.894;2023-09-18T05:31:47;0;0;
70436;PMS5003;57877;39.750;-104.894;2023-09-18T05:34:12;0;0;
70436;PMS5003;57877;39.750;-104.894;2023-09-18T05:36:37;0;0;
70436;PMS5003;57877;39.750;-104.894;2023-09-18T05:39:02;0;0;
70436;PMS5003;57877;39.750;-104.894;2023-09-18T05:41:27;0;0;
70436;PMS5003;57877;39.750;-104.894;2023-09-18T05:43:52;0;0;
70436;PMS5003;57877;39.750;-104.894;2023-09-18T05:46:17;0;0;
70436;PMS5003;57877;39.750;-104.894;2023-09-18T05:48:42;0;0;
70436;PMS5003;57877;39.750;-104.894;2023-09-18T05:51:07;1;0;
70436;PMS5003;57877;39.750;-104.894;2023-09-18T05:53:32;0;0;
70436;PMS5003;57877;39.750;-104.894;2023-09-18T05:55:57;0;0;
70436;PMS5003;57877;39.750;-104.894;2023-09-18T05:58:22;0;0;
70436;PMS5003;57877;39.750;-104.894;2023-09-18T06:00:48;0;0;
70436;PMS5003;57877;39.750;-104.894;2023-09-18T06:03:12;0;0;
70436;PMS5003;57877;39.750;-104.894;2023-09-18T06:05:37;0;0;
70436;PMS5003;57877;39.750;-104.894;2023-09-18T06:08:03;0;0;
70436;PMS5003;57877;39.750;-104.894;2023-09-18T06:10:27;0;0;
70436;PMS5003;57877;39.750;-104.894;2023-09-18T06:12:52;0;0;
70436;PMS5003;57877;39.750;-104.894;2023-09-18T06:15:18;0;0;
70436;PMS5003;57877;39.750;-104.894;2023-09-18T06:17:43;0;0;
70436;PMS5003;57877;39.750;-104.894;2023-09-18T06:20:08;0;0;
70436;PMS5003;57877;39.750;-104.894;2023-09-18T06:22:33;0;0;
70436;PMS5003;57877;39.750;-104.894;2023-09-18T06:24:58;0;0;
70436;PMS5003;57877;39.750;-104.894;2023-09-18T06:27:23;0;0;
70436;PMS5003;57877;39.750;-104.894;2023-09-18T06:29:48;0;0;
70436;PMS5003;57877;39.750;-104.894;2023-09-18T06:32:13;0;0;
70436;PMS5003;57877;39.750;-104.894;2023-09-18T06:34:39;0;0;
70436;PMS5003;57877;39.750;-104.894;2023-09-18T06:37:05;0;0;
70436;PMS5003;57877;39.750;-104.894;2023-09-18T06:39:30;0;0;
70436;PMS5003;57877;39.750;-104.894;2023-09-18T06:41:55;0;0;
70436;PMS5003;57877;39.750;-104.894;2023-09-18T06:44:20;0;0;
70436;PMS5003;57877;39.750;-104.894;2023-09-18T06:46:45;0;0;
70436;PMS5003;57877;39.750;-104.894;2023-09-18T06:49:10;0;0;
70436;PMS5003;57877;39.750;-104.894;2023-09-18T06:51:35;0;0;
70436;PMS5003;57877;39.750;-104.894;2023-09-18T06:54:00;0;0;
70436;PMS5003;57877;39.750;-104.894;2023-09-18T06:56:25;0;0;
70436;PMS5003;57877;39.750;-104.894;2023-09-18T06:58:51;0;0;
70436;PMS5003;57877;39.750;-104.894;2023-09-18T07:01:17;0;0;
70436;PMS5003;57877;39.750;-104.894;2023-09-18T07:03:43;0;0;
70436;PMS5003;57877;39.750;-104.894;2023-09-18T07:06:09;0;0;
70436;PMS5003;57877;39.750;-104.894;2023-09-18T07:08:34;0;0;
70436;PMS5003;57877;39.750;-104.894;2023-09-18T07:11:00;0;0;
70436;PMS5003;57877;39.750;-104.894;2023-09-18T07:13:26;0;0;
70436;PMS5003;57877;39.750;-104.894;2023-09-18T07:15:51;0;0;
70436;PMS5003;57877;39.750;-104.894;2023-09-18T07:18:16;0;0;
70436;PMS5003;57877;39.750;-104.894;2023-09-18T07:20:43;0;0;
70436;PMS5003;57877;39.750;-104.894;2023-09-18T07:23:07;0;0;
70436;PMS5003;57877;39.750;-104.894;2023-09-18T07:25:32;0;0;
70436;PMS5003;57877;39.750;-104.894;2023-09-18T07:27:58;0;0;
70436;PMS5003;57877;39.750;-104.894;2023-09-18T07:30:24;0;0;
70436;PMS5003;57877;39.750;-104.894;2023-09-18T07:32:49;0;0;
70436;PMS5003;57877;39.750;-104.894;2023-09-18T07:35:16;0;0;
70436;PMS5003;57877;39.750;-104.894;2023-09-18T07:37:41;0;0;
70436;PMS5003;57877;39.750;-104.894;2023-09-18T07:40:07;0;0;
70436;PMS5003;57877;39.750;-104.894;2023-09-18T07:42:33;0;0;
70436;PMS5003;57877;39.750;-104.894;2023-09-18T07:44:57;0;0;
70436;PMS5003;57877;39.750;-104.894;2023-09-18T07:47:23;0;0;
70436;PMS5003;57877;39.750;-104.894;2023-09-18T07:49:50;0;0;
70436;PMS5003;57877;39.750;-104.894;2023-09-18T07:52:15;0;0;
70436;PMS5003;57877;39.750;-104.894;2023-09-18T07:54:40;0;0;
70436;PMS5003;57877;39.750;-104.894;2023-09-18T07:57:05;0;0;
70436;PMS5003;57877;39.750;-104.894;2023-09-18T07:59:30;0;0;
70436;PMS5003;57877;39.750;-104.894;2023-09-18T08:01:55;0;0;
70436;PMS5003;57877;39.750;-104.894;2023-09-18T08:04:21;0;0;
70436;PMS5003;57877;39.750;-104.894;2023-09-18T08:06:46;0;0;
70436;PMS5003;57877;39.750;-104.894;2023-09-18T08:09:11;0;0;
70436;PMS5003;57877;39.750;-104.894;2023-09-18T08:11:36;0;0;
70436;PMS5003;57877;39.750;-104.894;2023-09-18T08:14:02;0;0;
70436;PMS5003;57877;39.750;-104.894;2023-09-18T08:16:28;0;0;
70436;PMS5003;57877;39.750;-104.894;2023-09-18T08:18:54;0;0;
70436;PMS5003;57877;39.750;-104.894;2023-09-18T08:21:20;0;0;
70436;PMS5003;57877;39.750;-104.894;2023-09-18T08:23:45;0;0;
70436;PMS5003;57877;39.750;-104.894;2023-09-18T08:26:11;0;0;
70436;PMS5003;57877;39.750;-104.894;2023-09-18T08:28:36;0;0;
70436;PMS5003;57877;39.750;-104.894;2023-09-18T08:31:01;0;0;
70436;PMS5003;57877;39.750;-104.894;2023-09-18T08:33:26;0;0;
70436;PMS5003;57877;39.750;-104.894;2023-09-18T08:35:51;0;0;
70436;PMS5003;57877;39.750;-104.894;2023-09-18T08:38:17;0;0;
70436;PMS5003;57877;39.750;-104.894;2023-09-18T08:40:43;0;0;
70436;PMS5003;57877;39.750;-104.894;2023-09-18T08:43:10;0;0;
70436;PMS5003;57877;39.750;-104.894;2023-09-18T08:45:37;0;0;
70436;PMS5003;57877;39.750;-104.894;2023-09-18T08:48:00;0;0;
70436;PMS5003;57877;39.750;-104.894;2023-09-18T08:50:25;0;0;
70436;PMS5003;57877;39.750;-104.894;2023-09-18T08:52:50;0;0;
70436;PMS5003;57877;39.750;-104.894;2023-09-18T08:55:15;0;0;
70436;PMS5003;57877;39.750;-104.894;2023-09-18T08:57:40;0;0;
70436;PMS5003;57877;39.750;-104.894;2023-09-18T09:00:07;0;0;
70436;PMS5003;57877;39.750;-104.894;2023-09-18T09:02:30;0;0;
70436;PMS5003;57877;39.750;-104.894;2023-09-18T09:04:55;0;0;
70436;PMS5003;57877;39.750;-104.894;2023-09-18T09:07:20;0;0;
70436;PMS5003;57877;39.750;-104.894;2023-09-18T09:09:45;0;0;
70436;PMS5003;57877;39.750;-104.894;2023-09-18T09:12:10;0;0;
70436;PMS5003;57877;39.750;-104.894;2023-09-18T09:14:35;0;0;
70436;PMS5003;57877;39.750;-104.894;2023-09-18T09:17:00;0;0;
70436;PMS5003;57877;39.750;-104.894;2023-09-18T09:19:29;0;0;
70436;PMS5003;57877;39.750;-104.894;2023-09-18T09:21:50;0;0;
70436;PMS5003;57877;39.750;-104.894;2023-09-18T09:24:16;0;0;
70436;PMS5003;57877;39.750;-104.894;2023-09-18T09:26:41;0;0;
70436;PMS5003;57877;39.750;-104.894;2023-09-18T09:31:31;0;0;
70436;PMS5003;57877;39.750;-104.894;2023-09-18T09:33:56;0;0;
70436;PMS5003;57877;39.750;-104.894;2023-09-18T09:36:21;0;0;
70436;PMS5003;57877;39.750;-104.894;2023-09-18T09:38:46;0;0;
70436;PMS5003;57877;39.750;-104.894;2023-09-18T09:41:13;0;0;
70436;PMS5003;57877;39.750;-104.894;2023-09-18T09:43:36;0;0;
70436;PMS5003;57877;39.750;-104.894;2023-09-18T09:46:01;0;0;
70436;PMS5003;57877;39.750;-104.894;2023-09-18T09:48:26;0;0;
70436;PMS5003;57877;39.750;-104.894;2023-09-18T09:50:51;0;0;
70436;PMS5003;57877;39.750;-104.894;2023-09-18T09:53:17;0;0;
70436;PMS5003;57877;39.750;-104.894;2023-09-18T09:55:42;0;0;
70436;PMS5003;57877;39.750;-104.894;2023-09-18T09:58:08;0;0;
70436;PMS5003;57877;39.750;-104.894;2023-09-18T10:00:32;0;0;
70436;PMS5003;57877;39.750;-104.894;2023-09-18T10:02:58;0;0;
70436;PMS5003;57877;39.750;-104.894;2023-09-18T10:05:22;0;0;
70436;PMS5003;57877;39.750;-104.894;2023-09-18T10:07:47;0;0;
70436;PMS5003;57877;39.750;-104.894;2023-09-18T10:10:12;0;0;
70436;PMS5003;57877;39.750;-104.894;2023-09-18T10:12:37;0;0;
70436;PMS5003;57877;39.750;-104.894;2023-09-18T10:15:02;0;0;
70436;PMS5003;57877;39.750;-104.894;2023-09-18T10:17:27;0;0;
70436;PMS5003;57877;39.750;-104.894;2023-09-18T10:19:54;0;0;
70436;PMS5003;57877;39.750;-104.894;2023-09-18T10:22:30;0;0;
70436;PMS5003;57877;39.750;-104.894;2023-09-18T10:24:42;0;0;
70436;PMS5003;57877;39.750;-104.894;2023-09-18T10:27:07;0;0;
70436;PMS5003;57877;39.750;-104.894;2023-09-18T10:29:33;0;0;
70436;PMS5003;57877;39.750;-104.894;2023-09-18T10:31:57;0;0;
70436;PMS5003;57877;39.750;-104.894;2023-09-18T10:34:23;0;0;
70436;PMS5003;57877;39.750;-104.894;2023-09-18T10:36:48;0;0;
70436;PMS5003;57877;39.750;-104.894;2023-09-18T10:39:12;1;0;
70436;PMS5003;57877;39.750;-104.894;2023-09-18T10:41:37;0;0;
70436;PMS5003;57877;39.750;-104.894;2023-09-18T10:44:02;0;0;
70436;PMS5003;57877;39.750;-104.894;2023-09-18T10:46:28;0;0;
70436;PMS5003;57877;39.750;-104.894;2023-09-18T10:48:54;0;0;
70436;PMS5003;57877;39.750;-104.894;2023-09-18T10:51:19;0;0;
70436;PMS5003;57877;39.750;-104.894;2023-09-18T10:53:43;0;0;
70436;PMS5003;57877;39.750;-104.894;2023-09-18T10:56:09;0;0;
70436;PMS5003;57877;39.750;-104.894;2023-09-18T10:58:34;0;0;
70436;PMS5003;57877;39.750;-104.894;2023-09-18T11:00:59;0;0;
70436;PMS5003;57877;39.750;-104.894;2023-09-18T11:03:24;0;0;
70436;PMS5003;57877;39.750;-104.894;2023-09-18T11:06:01;0;0;
70436;PMS5003;57877;39.750;-104.894;2023-09-18T11:13:05;0;0;
70436;PMS5003;57877;39.750;-104.894;2023-09-18T11:15:31;0;0;
70436;PMS5003;57877;39.750;-104.894;2023-09-18T11:17:58;0;0;
70436;PMS5003;57877;39.750;-104.894;2023-09-18T11:20:23;0;0;
70436;PMS5003;57877;39.750;-104.894;2023-09-18T11:22:46;0;0;
70436;PMS5003;57877;39.750;-104.894;2023-09-18T11:30:00;0;0;
70436;PMS5003;57877;39.750;-104.894;2023-09-18T11:34:50;0;0;
70436;PMS5003;57877;39.750;-104.894;2023-09-18T11:37:19;0;0;
70436;PMS5003;57877;39.750;-104.894;2023-09-18T11:39:40;0;0;
70436;PMS5003;57877;39.750;-104.894;2023-09-18T11:42:09;0;0;
70436;PMS5003;57877;39.750;-104.894;2023-09-18T11:44:33;0;0;
70436;PMS5003;57877;39.750;-104.894;2023-09-18T11:46:55;0;0;
70436;PMS5003;57877;39.750;-104.894;2023-09-18T11:49:20;0;0;
70436;PMS5003;57877;39.750;-104.894;2023-09-18T11:51:45;0;0;
70436;PMS5003;57877;39.750;-104.894;2023-09-18T11:54:10;0;0;
70436;PMS5003;57877;39.750;-104.894;2023-09-18T11:56:35;0;0;
70436;PMS5003;57877;39.750;-104.894;2023-09-18T11:59:00;0;0;
70436;PMS5003;57877;39.750;-104.894;2023-09-18T12:01:25;0;0;
70436;PMS5003;57877;39.750;-104.894;2023-09-18T12:03:54;0;0;
70436;PMS5003;57877;39.750;-104.894;2023-09-18T12:06:16;0;0;
70436;PMS5003;57877;39.750;-104.894;2023-09-18T12:08:41;0;0;
70436;PMS5003;57877;39.750;-104.894;2023-09-18T12:11:06;0;0;
70436;PMS5003;57877;39.750;-104.894;2023-09-18T12:13:31;1;0;
70436;PMS5003;57877;39.750;-104.894;2023-09-18T12:15:56;0;0;
70436;PMS5003;57877;39.750;-104.894;2023-09-18T12:18:21;0;0;
70436;PMS5003;57877;39.750;-104.894;2023-09-18T12:20:47;0;0;
70436;PMS5003;57877;39.750;-104.894;2023-09-18T12:23:11;1;1;
70436;PMS5003;57877;39.750;-104.894;2023-09-18T12:25:36;0;0;
70436;PMS5003;57877;39.750;-104.894;2023-09-18T12:28:02;0;0;
70436;PMS5003;57877;39.750;-104.894;2023-09-18T12:30:27;0;0;
70436;PMS5003;57877;39.750;-104.894;2023-09-18T12:32:52;0;0;
70436;PMS5003;57877;39.750;-104.894;2023-09-18T12:35:17;0;0;
70436;PMS5003;57877;39.750;-104.894;2023-09-18T12:37:43;0;0;
70436;PMS5003;57877;39.750;-104.894;2023-09-18T12:42:33;0;0;
70436;PMS5003;57877;39.750;-104.894;2023-09-18T12:44:58;0;0;
70436;PMS5003;57877;39.750;-104.894;2023-09-18T12:47:23;0;0;
70436;PMS5003;57877;39.750;-104.894;2023-09-18T12:49:48;0;0;
70436;PMS5003;57877;39.750;-104.894;2023-09-18T12:52:13;0;0;
70436;PMS5003;57877;39.750;-104.894;2023-09-18T12:54:39;0;0;
70436;PMS5003;57877;39.750;-104.894;2023-09-18T12:57:03;0;0;
70436;PMS5003;57877;39.750;-104.894;2023-09-18T12:59:31;0;0;
70436;PMS5003;57877;39.750;-104.894;2023-09-18T13:01:53;0;0;
70436;PMS5003;57877;39.750;-104.894;2023-09-18T13:04:18;0;0;
70436;PMS5003;57877;39.750;-104.894;2023-09-18T13:06:43;0;0;
70436;PMS5003;57877;39.750;-104.894;2023-09-18T13:11:33;0;0;
70436;PMS5003;57877;39.750;-104.894;2023-09-18T13:13:58;0;0;
70436;PMS5003;57877;39.750;-104.894;2023-09-18T13:16:24;0;0;
70436;PMS5003;57877;39.750;-104.894;2023-09-18T13:18:49;0;0;
70436;PMS5003;57877;39.750;-104.894;2023-09-18T13:21:14;0;0;
70436;PMS5003;57877;39.750;-104.894;2023-09-18T13:23:39;0;0;
70436;PMS5003;57877;39.750;-104.894;2023-09-18T13:26:05;0;0;
70436;PMS5003;57877;39.750;-104.894;2023-09-18T13:28:30;0;0;
70436;PMS5003;57877;39.750;-104.894;2023-09-18T13:30:55;0;0;
70436;PMS5003;57877;39.750;-104.894;2023-09-18T13:33:20;0;0;
70436;PMS5003;57877;39.750;-104.894;2023-09-18T13:35:45;0;0;
70436;PMS5003;57877;39.750;-104.894;2023-09-18T13:38:10;0;0;
70436;PMS5003;57877;39.750;-104.894;2023-09-18T13:40:35;0;0;
70436;PMS5003;57877;39.750;-104.894;2023-09-18T13:43:00;0;0;
70436;PMS5003;57877;39.750;-104.894;2023-09-18T13:45:25;0;0;
70436;PMS5003;57877;39.750;-104.894;2023-09-18T13:47:50;0;0;
70436;PMS5003;57877;39.750;-104.894;2023-09-18T13:50:15;0;0;
70436;PMS5003;57877;39.750;-104.894;2023-09-18T13:52:40;0;0;
70436;PMS5003;57877;39.750;-104.894;2023-09-18T13:55:05;0;0;
70436;PMS5003;57877;39.750;-104.894;2023-09-18T13:57:30;0;0;
70436;PMS5003;57877;39.750;-104.894;2023-09-18T13:59:55;0;0;
70436;PMS5003;57877;39.750;-104.894;2023-09-18T14:02:20;0;0;
70436;PMS5003;57877;39.750;-104.894;2023-09-18T14:04:45;0;0;
70436;PMS5003;57877;39.750;-104.894;2023-09-18T14:07:11;0;0;
70436;PMS5003;57877;39.750;-104.894;2023-09-18T14:09:35;0;0;
70436;PMS5003;57877;39.750;-104.894;2023-09-18T14:12:00;0;0;
70436;PMS5003;57877;39.750;-104.894;2023-09-18T14:14:25;0;0;
70436;PMS5003;57877;39.750;-104.894;2023-09-18T14:16:50;0;0;
70436;PMS5003;57877;39.750;-104.894;2023-09-18T14:19:15;0;0;
70436;PMS5003;57877;39.750;-104.894;2023-09-18T14:21:40;0;0;
70436;PMS5003;57877;39.750;-104.894;2023-09-18T14:24:05;0;0;
70436;PMS5003;57877;39.750;-104.894;2023-09-18T14:26:30;0;0;
70436;PMS5003;57877;39.750;-104.894;2023-09-18T14:28:55;0;0;
70436;PMS5003;57877;39.750;-104.894;2023-09-18T14:31:20;0;0;
70436;PMS5003;57877;39.750;-104.894;2023-09-18T14:33:45;0;0;
70436;PMS5003;57877;39.750;-104.894;2023-09-18T14:36:10;0;0;
70436;PMS5003;57877;39.750;-104.894;2023-09-18T14:38:36;0;0;
70436;PMS5003;57877;39.750;-104.894;2023-09-18T14:41:00;0;0;
70436;PMS5003;57877;39.750;-104.894;2023-09-18T14:43:25;0;0;
70436;PMS5003;57877;39.750;-104.894;2023-09-18T14:45:50;0;0;
70436;PMS5003;57877;39.750;-104.894;2023-09-18T14:48:16;0;0;
70436;PMS5003;57877;39.750;-104.894;2023-09-18T14:50:40;0;0;
70436;PMS5003;57877;39.750;-104.894;2023-09-18T14:53:05;0;0;
70436;PMS5003;57877;39.750;-104.894;2023-09-18T14:55:30;0;0;
70436;PMS5003;57877;39.750;-104.894;2023-09-18T14:57:55;0;0;
70436;PMS5003;57877;39.750;-104.894;2023-09-18T15:00:20;0;0;
70436;PMS5003;57877;39.750;-104.894;2023-09-18T15:02:46;0;0;
70436;PMS5003;57877;39.750;-104.894;2023-09-18T15:05:11;0;0;
70436;PMS5003;57877;39.750;-104.894;2023-09-18T15:07:36;0;0;
70436;PMS5003;57877;39.750;-104.894;2023-09-18T15:10:01;0;0;
70436;PMS5003;57877;39.750;-104.894;2023-09-18T15:12:26;0;0;
70436;PMS5003;57877;39.750;-104.894;2023-09-18T15:14:51;0;0;
70436;PMS5003;57877;39.750;-104.894;2023-09-18T15:17:16;0;0;
70436;PMS5003;57877;39.750;-104.894;2023-09-18T15:19:41;0;0;
70436;PMS5003;57877;39.750;-104.894;2023-09-18T15:22:06;0;0;
70436;PMS5003;57877;39.750;-104.894;2023-09-18T15:24:31;0;0;
70436;PMS5003;57877;39.750;-104.894;2023-09-18T15:26:56;0;0;
70436;PMS5003;57877;39.750;-104.894;2023-09-18T15:29:21;0;0;
70436;PMS5003;57877;39.750;-104.894;2023-09-18T15:31:46;0;0;
70436;PMS5003;57877;39.750;-104.894;2023-09-18T15:34:11;0;0;
70436;PMS5003;57877;39.750;-104.894;2023-09-18T15:36:36;0;0;
70436;PMS5003;57877;39.750;-104.894;2023-09-18T15:39:02;0;0;
70436;PMS5003;57877;39.750;-104.894;2023-09-18T15:41:27;0;0;
70436;PMS5003;57877;39.750;-104.894;2023-09-18T15:43:52;0;0;
70436;PMS5003;57877;39.750;-104.894;2023-09-18T15:46:17;0;0;
70436;PMS5003;57877;39.750;-104.894;2023-09-18T15:48:42;0;0;
70436;PMS5003;57877;39.750;-104.894;2023-09-18T15:51:07;0;0;
70436;PMS5003;57877;39.750;-104.894;2023-09-18T15:53:32;0;0;
70436;PMS5003;57877;39.750;-104.894;2023-09-18T15:55:57;0;0;
70436;PMS5003;57877;39.750;-104.894;2023-09-18T15:58:23;0;0;
70436;PMS5003;57877;39.750;-104.894;2023-09-18T16:00:48;0;0;
70436;PMS5003;57877;39.750;-104.894;2023-09-18T16:03:13;0;0;
70436;PMS5003;57877;39.750;-104.894;2023-09-18T16:05:38;0;0;
70436;PMS5003;57877;39.750;-104.894;2023-09-18T16:08:03;0;0;